Macon, Tennessee
Current Conditions -  °F | °C
As of 10:50 AM on Friday 28 Nov 2014 (Local Time) from KOLV Reporting Station
Clear Clear  
Wind Chill: 37°   Ceiling: Unl
Heat Index: 43°   Visibility: 10mi
Dew Point: 30°   Wind: 9mph
Humidity: 61%   Direction: 150°SSE
Pressure: 30.36"   Gusts: NA
Location:  35.15°N, 89.49°W
Report Text: KOLV 281650Z 15008KT 10SM SKC 06/M01 A3036
Loading
Personal Weather Stations






























Interactive Weather Map New forecast layout! Learn more

10-Day Weather Forecast

Advertisements
Track Severe Weather on mobile